GJT weather

Grand Junction Regional Airport
Grand Junction, Colorado, United States

Public forecast

Using degrees Fahrenheit for public forecast. Weather courtesy of forecast.io.

Current aviation weather report (METAR) for Grand Junction Regional Airport

Retrieved 2019/10/17 10:53 UTC (1 hour ago):

KGJT 171053Z AUTO 11015KT 10SM CLR 11/M13 A2999 RMK AO2 SLP104 T01111133

Aviation forecast (TAF) for Grand Junction Regional Airport

Retrieved 2019/10/17 06:22 UTC (6 hours ago):

TAF KGJT 170520Z 1706/1806 10006KT P6SM FEW250 FM171400 12009KT P6SM SCT250 FM171700 19012KT P6SM SCT250 FM180300 14007KT P6SM BKN120